sensor_id;sensor_type;location;lat;lon;timestamp;P1;durP1;ratioP1;P2;durP2;ratioP2
75413;SDS011;64758;52.122;5.404;2022-10-31T00:01:09;7.97;;;4.05;;
75413;SDS011;64758;52.122;5.404;2022-10-31T00:03:37;6.70;;;4.20;;
75413;SDS011;64758;52.122;5.404;2022-10-31T00:06:04;12.23;;;5.07;;
75413;SDS011;64758;52.122;5.404;2022-10-31T00:08:30;6.70;;;5.00;;
75413;SDS011;64758;52.122;5.404;2022-10-31T00:10:57;9.18;;;5.40;;
75413;SDS011;64758;52.122;5.404;2022-10-31T00:13:23;6.15;;;4.50;;
75413;SDS011;64758;52.122;5.404;2022-10-31T00:15:50;8.07;;;4.85;;
75413;SDS011;64758;52.122;5.404;2022-10-31T00:18:16;4.83;;;3.67;;
75413;SDS011;64758;52.122;5.404;2022-10-31T00:20:42;7.10;;;3.55;;
75413;SDS011;64758;52.122;5.404;2022-10-31T00:23:09;7.43;;;3.88;;
75413;SDS011;64758;52.122;5.404;2022-10-31T00:25:37;3.85;;;3.15;;
75413;SDS011;64758;52.122;5.404;2022-10-31T00:28:06;3.92;;;3.13;;
75413;SDS011;64758;52.122;5.404;2022-10-31T00:30:33;5.00;;;3.13;;
75413;SDS011;64758;52.122;5.404;2022-10-31T00:33:00;4.75;;;3.35;;
75413;SDS011;64758;52.122;5.404;2022-10-31T00:35:29;7.93;;;4.22;;
75413;SDS011;64758;52.122;5.404;2022-10-31T00:37:55;5.97;;;3.55;;
75413;SDS011;64758;52.122;5.404;2022-10-31T00:40:21;7.32;;;3.55;;
75413;SDS011;64758;52.122;5.404;2022-10-31T00:42:48;7.50;;;3.60;;
75413;SDS011;64758;52.122;5.404;2022-10-31T00:45:15;6.07;;;3.95;;
75413;SDS011;64758;52.122;5.404;2022-10-31T00:47:41;7.32;;;5.25;;
75413;SDS011;64758;52.122;5.404;2022-10-31T00:50:08;8.00;;;4.57;;
75413;SDS011;64758;52.122;5.404;2022-10-31T00:52:34;7.60;;;4.53;;
75413;SDS011;64758;52.122;5.404;2022-10-31T00:55:01;6.90;;;4.87;;
75413;SDS011;64758;52.122;5.404;2022-10-31T00:57:28;7.38;;;4.10;;
75413;SDS011;64758;52.122;5.404;2022-10-31T00:59:54;8.50;;;4.78;;
75413;SDS011;64758;52.122;5.404;2022-10-31T01:02:21;6.28;;;4.22;;
75413;SDS011;64758;52.122;5.404;2022-10-31T01:04:47;7.90;;;4.28;;
75413;SDS011;64758;52.122;5.404;2022-10-31T01:07:14;5.53;;;3.50;;
75413;SDS011;64758;52.122;5.404;2022-10-31T01:09:40;10.18;;;4.10;;
75413;SDS011;64758;52.122;5.404;2022-10-31T01:12:07;5.50;;;3.38;;
75413;SDS011;64758;52.122;5.404;2022-10-31T01:14:34;5.60;;;3.45;;
75413;SDS011;64758;52.122;5.404;2022-10-31T01:17:00;6.88;;;3.63;;
75413;SDS011;64758;52.122;5.404;2022-10-31T01:19:28;4.93;;;3.07;;
75413;SDS011;64758;52.122;5.404;2022-10-31T01:21:55;5.80;;;3.17;;
75413;SDS011;64758;52.122;5.404;2022-10-31T01:24:21;4.97;;;3.50;;
75413;SDS011;64758;52.122;5.404;2022-10-31T01:26:48;5.85;;;3.40;;
75413;SDS011;64758;52.122;5.404;2022-10-31T01:29:15;5.78;;;3.50;;
75413;SDS011;64758;52.122;5.404;2022-10-31T01:31:41;5.63;;;3.20;;
75413;SDS011;64758;52.122;5.404;2022-10-31T01:34:09;6.82;;;3.25;;
75413;SDS011;64758;52.122;5.404;2022-10-31T01:36:39;7.10;;;3.45;;
75413;SDS011;64758;52.122;5.404;2022-10-31T01:39:07;4.75;;;3.30;;
75413;SDS011;64758;52.122;5.404;2022-10-31T01:41:41;7.40;;;3.83;;
75413;SDS011;64758;52.122;5.404;2022-10-31T01:46:43;5.78;;;3.53;;
75413;SDS011;64758;52.122;5.404;2022-10-31T01:49:24;4.45;;;2.10;;
75413;SDS011;64758;52.122;5.404;2022-10-31T01:51:55;3.20;;;2.15;;
75413;SDS011;64758;52.122;5.404;2022-10-31T01:54:25;6.65;;;3.05;;
75413;SDS011;64758;52.122;5.404;2022-10-31T01:56:57;6.57;;;3.42;;
75413;SDS011;64758;52.122;5.404;2022-10-31T01:59:27;4.68;;;3.60;;
75413;SDS011;64758;52.122;5.404;2022-10-31T02:01:56;7.93;;;4.13;;
75413;SDS011;64758;52.122;5.404;2022-10-31T02:04:23;7.13;;;4.15;;
75413;SDS011;64758;52.122;5.404;2022-10-31T02:09:33;3.80;;;2.90;;
75413;SDS011;64758;52.122;5.404;2022-10-31T02:12:02;4.03;;;1.98;;
75413;SDS011;64758;52.122;5.404;2022-10-31T02:14:30;3.25;;;2.00;;
75413;SDS011;64758;52.122;5.404;2022-10-31T02:16:57;7.60;;;3.53;;
75413;SDS011;64758;52.122;5.404;2022-10-31T02:19:26;6.32;;;3.28;;
75413;SDS011;64758;52.122;5.404;2022-10-31T02:22:04;6.25;;;3.72;;
75413;SDS011;64758;52.122;5.404;2022-10-31T02:35:38;5.03;;;2.33;;
75413;SDS011;64758;52.122;5.404;2022-10-31T02:43:39;5.90;;;3.03;;
75413;SDS011;64758;52.122;5.404;2022-10-31T02:48:45;4.22;;;3.25;;
75413;SDS011;64758;52.122;5.404;2022-10-31T02:51:13;3.40;;;2.85;;
75413;SDS011;64758;52.122;5.404;2022-10-31T02:53:42;1.65;;;1.25;;
75413;SDS011;64758;52.122;5.404;2022-10-31T02:58:42;2.55;;;2.05;;
75413;SDS011;64758;52.122;5.404;2022-10-31T03:07:03;5.28;;;2.10;;
75413;SDS011;64758;52.122;5.404;2022-10-31T03:09:51;3.55;;;2.22;;
75413;SDS011;64758;52.122;5.404;2022-10-31T03:12:26;3.03;;;2.05;;
75413;SDS011;64758;52.122;5.404;2022-10-31T03:15:14;5.03;;;2.30;;
75413;SDS011;64758;52.122;5.404;2022-10-31T03:18:07;3.70;;;2.33;;
75413;SDS011;64758;52.122;5.404;2022-10-31T03:20:39;4.88;;;2.50;;
75413;SDS011;64758;52.122;5.404;2022-10-31T03:23:09;5.43;;;2.72;;
75413;SDS011;64758;52.122;5.404;2022-10-31T03:25:39;4.75;;;2.40;;
75413;SDS011;64758;52.122;5.404;2022-10-31T03:28:08;6.30;;;2.67;;
75413;SDS011;64758;52.122;5.404;2022-10-31T03:30:36;8.23;;;2.40;;
75413;SDS011;64758;52.122;5.404;2022-10-31T03:33:07;7.32;;;2.50;;
75413;SDS011;64758;52.122;5.404;2022-10-31T03:35:37;5.80;;;2.83;;
75413;SDS011;64758;52.122;5.404;2022-10-31T03:38:08;7.50;;;3.10;;
75413;SDS011;64758;52.122;5.404;2022-10-31T03:40:36;6.38;;;3.20;;
75413;SDS011;64758;52.122;5.404;2022-10-31T03:43:05;10.00;;;3.47;;
75413;SDS011;64758;52.122;5.404;2022-10-31T03:45:38;8.73;;;3.50;;
75413;SDS011;64758;52.122;5.404;2022-10-31T03:48:08;5.63;;;2.67;;
75413;SDS011;64758;52.122;5.404;2022-10-31T03:50:39;6.07;;;2.80;;
75413;SDS011;64758;52.122;5.404;2022-10-31T03:53:41;5.75;;;2.45;;
75413;SDS011;64758;52.122;5.404;2022-10-31T03:56:19;5.60;;;2.85;;
75413;SDS011;64758;52.122;5.404;2022-10-31T04:01:34;3.47;;;2.40;;
75413;SDS011;64758;52.122;5.404;2022-10-31T04:04:06;4.53;;;2.77;;
75413;SDS011;64758;52.122;5.404;2022-10-31T04:06:34;3.80;;;2.50;;
75413;SDS011;64758;52.122;5.404;2022-10-31T04:09:04;4.70;;;2.75;;
75413;SDS011;64758;52.122;5.404;2022-10-31T04:11:40;3.50;;;2.42;;
75413;SDS011;64758;52.122;5.404;2022-10-31T04:14:12;3.13;;;2.10;;
75413;SDS011;64758;52.122;5.404;2022-10-31T04:16:42;6.65;;;2.03;;
75413;SDS011;64758;52.122;5.404;2022-10-31T04:19:10;3.88;;;2.13;;
75413;SDS011;64758;52.122;5.404;2022-10-31T04:21:38;7.53;;;2.53;;
75413;SDS011;64758;52.122;5.404;2022-10-31T04:24:04;4.63;;;2.60;;
75413;SDS011;64758;52.122;5.404;2022-10-31T04:26:31;4.10;;;2.35;;
75413;SDS011;64758;52.122;5.404;2022-10-31T04:28:58;5.15;;;2.60;;
75413;SDS011;64758;52.122;5.404;2022-10-31T04:31:24;7.30;;;2.88;;
75413;SDS011;64758;52.122;5.404;2022-10-31T04:33:50;4.55;;;2.60;;
75413;SDS011;64758;52.122;5.404;2022-10-31T04:36:17;6.32;;;2.70;;
75413;SDS011;64758;52.122;5.404;2022-10-31T04:38:44;4.40;;;3.10;;
75413;SDS011;64758;52.122;5.404;2022-10-31T04:41:10;4.90;;;2.85;;
75413;SDS011;64758;52.122;5.404;2022-10-31T04:43:36;6.05;;;2.65;;
75413;SDS011;64758;52.122;5.404;2022-10-31T04:46:03;11.27;;;2.97;;
75413;SDS011;64758;52.122;5.404;2022-10-31T04:48:30;5.50;;;2.83;;
75413;SDS011;64758;52.122;5.404;2022-10-31T04:51:00;5.00;;;2.78;;
75413;SDS011;64758;52.122;5.404;2022-10-31T04:53:27;4.50;;;2.47;;
75413;SDS011;64758;52.122;5.404;2022-10-31T04:55:54;5.15;;;2.60;;
75413;SDS011;64758;52.122;5.404;2022-10-31T04:58:21;4.45;;;2.90;;
75413;SDS011;64758;52.122;5.404;2022-10-31T05:00:47;4.07;;;2.55;;
75413;SDS011;64758;52.122;5.404;2022-10-31T05:03:18;3.42;;;2.00;;
75413;SDS011;64758;52.122;5.404;2022-10-31T05:05:44;3.53;;;2.43;;
75413;SDS011;64758;52.122;5.404;2022-10-31T05:08:10;5.47;;;3.03;;
75413;SDS011;64758;52.122;5.404;2022-10-31T05:10:37;4.90;;;2.63;;
75413;SDS011;64758;52.122;5.404;2022-10-31T05:13:04;9.57;;;3.38;;
75413;SDS011;64758;52.122;5.404;2022-10-31T05:15:31;7.93;;;3.20;;
75413;SDS011;64758;52.122;5.404;2022-10-31T05:17:59;9.43;;;3.67;;
75413;SDS011;64758;52.122;5.404;2022-10-31T05:20:26;6.45;;;2.85;;
75413;SDS011;64758;52.122;5.404;2022-10-31T05:22:55;5.40;;;3.20;;
75413;SDS011;64758;52.122;5.404;2022-10-31T05:25:23;6.72;;;3.20;;
75413;SDS011;64758;52.122;5.404;2022-10-31T05:27:52;8.25;;;3.28;;
75413;SDS011;64758;52.122;5.404;2022-10-31T05:30:22;8.23;;;3.03;;
75413;SDS011;64758;52.122;5.404;2022-10-31T05:32:53;11.63;;;4.05;;
75413;SDS011;64758;52.122;5.404;2022-10-31T05:35:21;11.88;;;4.05;;
75413;SDS011;64758;52.122;5.404;2022-10-31T05:37:50;9.93;;;3.63;;
75413;SDS011;64758;52.122;5.404;2022-10-31T05:40:17;6.97;;;3.15;;
75413;SDS011;64758;52.122;5.404;2022-10-31T05:42:45;9.30;;;4.00;;
75413;SDS011;64758;52.122;5.404;2022-10-31T05:45:13;8.30;;;4.20;;
75413;SDS011;64758;52.122;5.404;2022-10-31T05:47:41;12.77;;;4.90;;
75413;SDS011;64758;52.122;5.404;2022-10-31T05:50:08;10.65;;;3.88;;
75413;SDS011;64758;52.122;5.404;2022-10-31T05:52:36;9.15;;;3.50;;
75413;SDS011;64758;52.122;5.404;2022-10-31T05:55:02;11.20;;;3.67;;
75413;SDS011;64758;52.122;5.404;2022-10-31T05:57:29;14.73;;;3.90;;
75413;SDS011;64758;52.122;5.404;2022-10-31T05:59:58;21.38;;;4.20;;
75413;SDS011;64758;52.122;5.404;2022-10-31T06:02:25;11.18;;;4.10;;
75413;SDS011;64758;52.122;5.404;2022-10-31T06:04:53;10.07;;;4.13;;
75413;SDS011;64758;52.122;5.404;2022-10-31T06:07:19;11.03;;;3.73;;
75413;SDS011;64758;52.122;5.404;2022-10-31T06:09:46;10.82;;;4.38;;
75413;SDS011;64758;52.122;5.404;2022-10-31T06:12:12;20.30;;;4.45;;
75413;SDS011;64758;52.122;5.404;2022-10-31T06:14:39;17.00;;;4.53;;
75413;SDS011;64758;52.122;5.404;2022-10-31T06:17:05;15.52;;;4.80;;
75413;SDS011;64758;52.122;5.404;2022-10-31T06:19:32;14.23;;;4.60;;
75413;SDS011;64758;52.122;5.404;2022-10-31T06:21:59;13.02;;;6.20;;
75413;SDS011;64758;52.122;5.404;2022-10-31T06:24:25;10.95;;;4.90;;
75413;SDS011;64758;52.122;5.404;2022-10-31T06:26:51;8.50;;;4.78;;
75413;SDS011;64758;52.122;5.404;2022-10-31T06:29:18;11.10;;;4.50;;
75413;SDS011;64758;52.122;5.404;2022-10-31T06:31:45;12.00;;;3.83;;
75413;SDS011;64758;52.122;5.404;2022-10-31T06:34:11;10.30;;;4.70;;
75413;SDS011;64758;52.122;5.404;2022-10-31T06:36:37;8.65;;;4.22;;
75413;SDS011;64758;52.122;5.404;2022-10-31T06:39:04;17.77;;;5.13;;
75413;SDS011;64758;52.122;5.404;2022-10-31T06:41:30;18.48;;;5.25;;
75413;SDS011;64758;52.122;5.404;2022-10-31T06:43:57;11.30;;;4.80;;
75413;SDS011;64758;52.122;5.404;2022-10-31T06:46:23;11.55;;;4.78;;
75413;SDS011;64758;52.122;5.404;2022-10-31T06:48:50;17.63;;;6.28;;
75413;SDS011;64758;52.122;5.404;2022-10-31T06:51:16;14.13;;;5.85;;
75413;SDS011;64758;52.122;5.404;2022-10-31T06:53:42;18.95;;;5.95;;
75413;SDS011;64758;52.122;5.404;2022-10-31T06:56:09;9.67;;;5.10;;
75413;SDS011;64758;52.122;5.404;2022-10-31T06:58:35;29.13;;;5.30;;
75413;SDS011;64758;52.122;5.404;2022-10-31T07:01:02;16.77;;;5.55;;
75413;SDS011;64758;52.122;5.404;2022-10-31T07:03:28;16.95;;;5.88;;
75413;SDS011;64758;52.122;5.404;2022-10-31T07:05:55;20.88;;;6.07;;
75413;SDS011;64758;52.122;5.404;2022-10-31T07:08:23;16.67;;;5.23;;
75413;SDS011;64758;52.122;5.404;2022-10-31T07:10:51;22.38;;;5.53;;
75413;SDS011;64758;52.122;5.404;2022-10-31T07:13:19;13.63;;;4.85;;
75413;SDS011;64758;52.122;5.404;2022-10-31T07:15:51;17.75;;;5.03;;
75413;SDS011;64758;52.122;5.404;2022-10-31T07:18:20;24.42;;;5.95;;
75413;SDS011;64758;52.122;5.404;2022-10-31T07:20:47;18.17;;;5.07;;
75413;SDS011;64758;52.122;5.404;2022-10-31T07:23:14;16.42;;;5.20;;
75413;SDS011;64758;52.122;5.404;2022-10-31T07:25:40;16.60;;;5.25;;
75413;SDS011;64758;52.122;5.404;2022-10-31T07:28:07;19.98;;;5.97;;
75413;SDS011;64758;52.122;5.404;2022-10-31T07:30:35;22.08;;;5.15;;
75413;SDS011;64758;52.122;5.404;2022-10-31T07:33:01;11.47;;;5.47;;
75413;SDS011;64758;52.122;5.404;2022-10-31T07:35:28;12.38;;;4.78;;
75413;SDS011;64758;52.122;5.404;2022-10-31T07:37:56;13.27;;;5.13;;
75413;SDS011;64758;52.122;5.404;2022-10-31T07:40:23;16.25;;;5.40;;
75413;SDS011;64758;52.122;5.404;2022-10-31T07:42:51;10.13;;;5.03;;
75413;SDS011;64758;52.122;5.404;2022-10-31T07:45:19;9.00;;;4.55;;
75413;SDS011;64758;52.122;5.404;2022-10-31T07:47:47;7.47;;;4.95;;
75413;SDS011;64758;52.122;5.404;2022-10-31T07:50:16;16.83;;;5.32;;
75413;SDS011;64758;52.122;5.404;2022-10-31T07:52:45;10.85;;;5.50;;
75413;SDS011;64758;52.122;5.404;2022-10-31T07:55:11;9.48;;;5.47;;
75413;SDS011;64758;52.122;5.404;2022-10-31T07:57:38;9.20;;;5.43;;
75413;SDS011;64758;52.122;5.404;2022-10-31T08:00:09;15.85;;;5.72;;
75413;SDS011;64758;52.122;5.404;2022-10-31T08:02:36;9.73;;;5.93;;
75413;SDS011;64758;52.122;5.404;2022-10-31T08:05:03;13.88;;;6.60;;
75413;SDS011;64758;52.122;5.404;2022-10-31T08:07:29;22.15;;;6.28;;
75413;SDS011;64758;52.122;5.404;2022-10-31T08:10:07;24.10;;;6.17;;
75413;SDS011;64758;52.122;5.404;2022-10-31T08:12:33;39.78;;;7.15;;
75413;SDS011;64758;52.122;5.404;2022-10-31T08:15:00;17.73;;;7.40;;
75413;SDS011;64758;52.122;5.404;2022-10-31T08:17:28;27.08;;;7.70;;
75413;SDS011;64758;52.122;5.404;2022-10-31T08:19:55;21.70;;;6.55;;
75413;SDS011;64758;52.122;5.404;2022-10-31T08:22:22;24.05;;;7.57;;
75413;SDS011;64758;52.122;5.404;2022-10-31T08:24:48;22.05;;;7.30;;
75413;SDS011;64758;52.122;5.404;2022-10-31T08:27:15;27.55;;;7.30;;
75413;SDS011;64758;52.122;5.404;2022-10-31T08:29:41;29.15;;;7.82;;
75413;SDS011;64758;52.122;5.404;2022-10-31T08:32:07;15.75;;;7.47;;
75413;SDS011;64758;52.122;5.404;2022-10-31T08:34:34;19.38;;;8.02;;
75413;SDS011;64758;52.122;5.404;2022-10-31T08:37:00;16.65;;;7.93;;
75413;SDS011;64758;52.122;5.404;2022-10-31T08:39:27;15.18;;;8.25;;
75413;SDS011;64758;52.122;5.404;2022-10-31T08:41:53;13.65;;;8.32;;
75413;SDS011;64758;52.122;5.404;2022-10-31T08:44:20;14.05;;;8.60;;
75413;SDS011;64758;52.122;5.404;2022-10-31T08:46:47;14.50;;;8.38;;
75413;SDS011;64758;52.122;5.404;2022-10-31T08:49:13;15.93;;;8.33;;
75413;SDS011;64758;52.122;5.404;2022-10-31T08:51:40;12.65;;;8.07;;
75413;SDS011;64758;52.122;5.404;2022-10-31T08:54:06;15.07;;;8.50;;
75413;SDS011;64758;52.122;5.404;2022-10-31T08:56:33;14.77;;;8.48;;
75413;SDS011;64758;52.122;5.404;2022-10-31T08:58:59;13.63;;;8.60;;
75413;SDS011;64758;52.122;5.404;2022-10-31T09:01:26;11.53;;;7.97;;
75413;SDS011;64758;52.122;5.404;2022-10-31T09:03:52;14.40;;;8.63;;
75413;SDS011;64758;52.122;5.404;2022-10-31T09:06:19;15.07;;;8.32;;
75413;SDS011;64758;52.122;5.404;2022-10-31T09:08:45;13.52;;;8.50;;
75413;SDS011;64758;52.122;5.404;2022-10-31T09:11:12;16.83;;;9.43;;
75413;SDS011;64758;52.122;5.404;2022-10-31T09:13:38;13.90;;;9.77;;
75413;SDS011;64758;52.122;5.404;2022-10-31T09:16:06;16.58;;;10.95;;
75413;SDS011;64758;52.122;5.404;2022-10-31T09:18:33;19.30;;;12.43;;
75413;SDS011;64758;52.122;5.404;2022-10-31T09:21:00;18.77;;;11.48;;
75413;SDS011;64758;52.122;5.404;2022-10-31T09:23:27;18.60;;;11.65;;
75413;SDS011;64758;52.122;5.404;2022-10-31T09:25:53;18.33;;;11.30;;
75413;SDS011;64758;52.122;5.404;2022-10-31T09:28:22;16.73;;;10.80;;
75413;SDS011;64758;52.122;5.404;2022-10-31T09:30:50;14.98;;;11.70;;
75413;SDS011;64758;52.122;5.404;2022-10-31T09:33:18;18.30;;;11.43;;
75413;SDS011;64758;52.122;5.404;2022-10-31T09:35:45;16.08;;;12.00;;
75413;SDS011;64758;52.122;5.404;2022-10-31T09:38:12;17.47;;;12.13;;
75413;SDS011;64758;52.122;5.404;2022-10-31T09:40:41;21.85;;;12.27;;
75413;SDS011;64758;52.122;5.404;2022-10-31T09:48:34;19.35;;;13.05;;
75413;SDS011;64758;52.122;5.404;2022-10-31T09:51:19;21.07;;;12.90;;
75413;SDS011;64758;52.122;5.404;2022-10-31T09:56:39;23.58;;;12.90;;
75413;SDS011;64758;52.122;5.404;2022-10-31T09:59:11;19.83;;;12.68;;
75413;SDS011;64758;52.122;5.404;2022-10-31T10:04:34;22.97;;;13.43;;
75413;SDS011;64758;52.122;5.404;2022-10-31T10:10:05;19.83;;;13.55;;
75413;SDS011;64758;52.122;5.404;2022-10-31T10:24:00;23.80;;;13.48;;
75413;SDS011;64758;52.122;5.404;2022-10-31T10:26:30;21.45;;;12.52;;
75413;SDS011;64758;52.122;5.404;2022-10-31T10:29:08;22.38;;;12.20;;
75413;SDS011;64758;52.122;5.404;2022-10-31T10:31:47;19.10;;;12.20;;
75413;SDS011;64758;52.122;5.404;2022-10-31T10:34:20;24.83;;;12.55;;
75413;SDS011;64758;52.122;5.404;2022-10-31T10:39:30;21.80;;;11.52;;
75413;SDS011;64758;52.122;5.404;2022-10-31T10:42:07;22.42;;;11.30;;
75413;SDS011;64758;52.122;5.404;2022-10-31T10:44:56;21.37;;;10.87;;
75413;SDS011;64758;52.122;5.404;2022-10-31T10:47:43;17.98;;;9.80;;
75413;SDS011;64758;52.122;5.404;2022-10-31T10:50:18;15.93;;;10.25;;
75413;SDS011;64758;52.122;5.404;2022-10-31T10:58:49;19.33;;;10.07;;
75413;SDS011;64758;52.122;5.404;2022-10-31T11:01:15;15.18;;;9.13;;
75413;SDS011;64758;52.122;5.404;2022-10-31T11:03:42;16.42;;;9.05;;
75413;SDS011;64758;52.122;5.404;2022-10-31T11:09:10;17.38;;;10.25;;
75413;SDS011;64758;52.122;5.404;2022-10-31T11:11:38;16.83;;;9.60;;
75413;SDS011;64758;52.122;5.404;2022-10-31T11:14:05;17.02;;;8.82;;
75413;SDS011;64758;52.122;5.404;2022-10-31T11:16:40;18.58;;;9.10;;
75413;SDS011;64758;52.122;5.404;2022-10-31T11:21:38;16.48;;;8.90;;
75413;SDS011;64758;52.122;5.404;2022-10-31T11:26:37;14.25;;;8.07;;
75413;SDS011;64758;52.122;5.404;2022-10-31T11:29:17;17.42;;;9.27;;
75413;SDS011;64758;52.122;5.404;2022-10-31T11:31:52;19.20;;;9.40;;
75413;SDS011;64758;52.122;5.404;2022-10-31T11:34:31;17.42;;;8.40;;
75413;SDS011;64758;52.122;5.404;2022-10-31T11:37:12;14.53;;;9.00;;
75413;SDS011;64758;52.122;5.404;2022-10-31T11:39:44;18.70;;;9.90;;
75413;SDS011;64758;52.122;5.404;2022-10-31T11:42:20;16.42;;;9.52;;
75413;SDS011;64758;52.122;5.404;2022-10-31T11:44:48;23.55;;;10.70;;
75413;SDS011;64758;52.122;5.404;2022-10-31T11:47:16;25.63;;;11.35;;
75413;SDS011;64758;52.122;5.404;2022-10-31T11:49:48;17.50;;;10.53;;
75413;SDS011;64758;52.122;5.404;2022-10-31T11:52:25;25.95;;;11.98;;
75413;SDS011;64758;52.122;5.404;2022-10-31T11:54:55;23.85;;;11.73;;
75413;SDS011;64758;52.122;5.404;2022-10-31T11:57:42;18.38;;;10.55;;
75413;SDS011;64758;52.122;5.404;2022-10-31T12:00:25;23.58;;;11.38;;
75413;SDS011;64758;52.122;5.404;2022-10-31T12:08:41;29.23;;;12.68;;
75413;SDS011;64758;52.122;5.404;2022-10-31T12:13:51;27.77;;;12.80;;
75413;SDS011;64758;52.122;5.404;2022-10-31T12:22:13;25.77;;;12.90;;
75413;SDS011;64758;52.122;5.404;2022-10-31T12:24:47;23.75;;;12.48;;
75413;SDS011;64758;52.122;5.404;2022-10-31T12:30:17;23.70;;;12.57;;
75413;SDS011;64758;52.122;5.404;2022-10-31T12:55:45;28.40;;;13.32;;
75413;SDS011;64758;52.122;5.404;2022-10-31T12:58:34;29.23;;;13.80;;
75413;SDS011;64758;52.122;5.404;2022-10-31T13:01:11;27.30;;;13.13;;
75413;SDS011;64758;52.122;5.404;2022-10-31T13:06:20;28.33;;;13.52;;
75413;SDS011;64758;52.122;5.404;2022-10-31T13:09:09;29.30;;;12.60;;
75413;SDS011;64758;52.122;5.404;2022-10-31T13:11:45;31.27;;;12.03;;
75413;SDS011;64758;52.122;5.404;2022-10-31T13:14:36;30.33;;;13.27;;
75413;SDS011;64758;52.122;5.404;2022-10-31T13:17:14;31.88;;;12.73;;
75413;SDS011;64758;52.122;5.404;2022-10-31T13:19:48;28.48;;;13.40;;
75413;SDS011;64758;52.122;5.404;2022-10-31T13:22:17;26.90;;;14.23;;
75413;SDS011;64758;52.122;5.404;2022-10-31T13:30:23;32.60;;;13.02;;
75413;SDS011;64758;52.122;5.404;2022-10-31T13:38:00;31.53;;;13.47;;
75413;SDS011;64758;52.122;5.404;2022-10-31T13:40:47;29.50;;;12.57;;
75413;SDS011;64758;52.122;5.404;2022-10-31T13:45:55;35.28;;;13.63;;
75413;SDS011;64758;52.122;5.404;2022-10-31T13:50:56;29.60;;;13.63;;
75413;SDS011;64758;52.122;5.404;2022-10-31T13:53:35;26.33;;;13.55;;
75413;SDS011;64758;52.122;5.404;2022-10-31T13:56:12;29.67;;;13.60;;
75413;SDS011;64758;52.122;5.404;2022-10-31T14:01:36;29.02;;;13.25;;
75413;SDS011;64758;52.122;5.404;2022-10-31T14:04:56;27.43;;;13.63;;
75413;SDS011;64758;52.122;5.404;2022-10-31T14:07:11;32.13;;;13.63;;
75413;SDS011;64758;52.122;5.404;2022-10-31T14:09:57;34.20;;;14.95;;
75413;SDS011;64758;52.122;5.404;2022-10-31T14:12:41;27.70;;;13.98;;
75413;SDS011;64758;52.122;5.404;2022-10-31T14:17:46;30.97;;;14.33;;
75413;SDS011;64758;52.122;5.404;2022-10-31T14:22:45;23.25;;;13.50;;
75413;SDS011;64758;52.122;5.404;2022-10-31T14:25:29;35.03;;;14.57;;
75413;SDS011;64758;52.122;5.404;2022-10-31T14:27:59;34.72;;;14.02;;
75413;SDS011;64758;52.122;5.404;2022-10-31T14:30:29;26.50;;;13.87;;
75413;SDS011;64758;52.122;5.404;2022-10-31T14:33:00;28.33;;;13.88;;
75413;SDS011;64758;52.122;5.404;2022-10-31T14:41:15;28.38;;;13.90;;
75413;SDS011;64758;52.122;5.404;2022-10-31T14:51:39;28.77;;;13.27;;
75413;SDS011;64758;52.122;5.404;2022-10-31T14:54:12;28.90;;;13.63;;
75413;SDS011;64758;52.122;5.404;2022-10-31T14:56:52;31.93;;;13.13;;
75413;SDS011;64758;52.122;5.404;2022-10-31T14:59:23;30.38;;;12.80;;
75413;SDS011;64758;52.122;5.404;2022-10-31T15:04:54;29.05;;;13.50;;
75413;SDS011;64758;52.122;5.404;2022-10-31T15:07:23;25.98;;;13.75;;
75413;SDS011;64758;52.122;5.404;2022-10-31T15:09:58;26.33;;;13.60;;
75413;SDS011;64758;52.122;5.404;2022-10-31T15:12:31;29.88;;;12.82;;
75413;SDS011;64758;52.122;5.404;2022-10-31T15:17:44;33.75;;;14.45;;
75413;SDS011;64758;52.122;5.404;2022-10-31T15:20:23;30.52;;;12.88;;
75413;SDS011;64758;52.122;5.404;2022-10-31T15:22:55;27.53;;;13.23;;
75413;SDS011;64758;52.122;5.404;2022-10-31T15:25:23;28.75;;;13.35;;
75413;SDS011;64758;52.122;5.404;2022-10-31T15:27:54;30.65;;;13.43;;
75413;SDS011;64758;52.122;5.404;2022-10-31T15:32:49;30.42;;;13.32;;
75413;SDS011;64758;52.122;5.404;2022-10-31T15:35:30;29.70;;;13.07;;
75413;SDS011;64758;52.122;5.404;2022-10-31T15:37:57;30.10;;;12.75;;
75413;SDS011;64758;52.122;5.404;2022-10-31T15:40:26;30.70;;;13.38;;
75413;SDS011;64758;52.122;5.404;2022-10-31T15:42:57;29.92;;;13.30;;
75413;SDS011;64758;52.122;5.404;2022-10-31T15:45:28;28.73;;;13.18;;
75413;SDS011;64758;52.122;5.404;2022-10-31T15:47:57;26.63;;;12.67;;
75413;SDS011;64758;52.122;5.404;2022-10-31T15:52:59;27.60;;;12.77;;
75413;SDS011;64758;52.122;5.404;2022-10-31T15:55:28;25.85;;;12.90;;
75413;SDS011;64758;52.122;5.404;2022-10-31T15:57:59;25.20;;;13.10;;
75413;SDS011;64758;52.122;5.404;2022-10-31T16:00:31;29.10;;;13.13;;
75413;SDS011;64758;52.122;5.404;2022-10-31T16:03:06;34.17;;;13.07;;
75413;SDS011;64758;52.122;5.404;2022-10-31T16:05:48;22.63;;;11.85;;
75413;SDS011;64758;52.122;5.404;2022-10-31T16:08:44;28.70;;;11.82;;
75413;SDS011;64758;52.122;5.404;2022-10-31T16:13:52;28.57;;;12.33;;
75413;SDS011;64758;52.122;5.404;2022-10-31T16:16:21;31.55;;;12.40;;
75413;SDS011;64758;52.122;5.404;2022-10-31T16:19:05;26.08;;;11.88;;
75413;SDS011;64758;52.122;5.404;2022-10-31T16:21:42;29.33;;;11.95;;
75413;SDS011;64758;52.122;5.404;2022-10-31T16:24:19;27.25;;;13.02;;
75413;SDS011;64758;52.122;5.404;2022-10-31T16:26:47;28.50;;;11.87;;
75413;SDS011;64758;52.122;5.404;2022-10-31T16:29:25;25.33;;;12.07;;
75413;SDS011;64758;52.122;5.404;2022-10-31T16:31:59;28.48;;;12.15;;
75413;SDS011;64758;52.122;5.404;2022-10-31T16:34:26;27.75;;;13.35;;
75413;SDS011;64758;52.122;5.404;2022-10-31T16:36:52;26.77;;;11.70;;
75413;SDS011;64758;52.122;5.404;2022-10-31T16:39:19;26.93;;;11.60;;
75413;SDS011;64758;52.122;5.404;2022-10-31T16:41:48;21.95;;;11.80;;
75413;SDS011;64758;52.122;5.404;2022-10-31T16:44:24;28.20;;;12.48;;
75413;SDS011;64758;52.122;5.404;2022-10-31T16:47:13;26.15;;;12.27;;
75413;SDS011;64758;52.122;5.404;2022-10-31T16:49:39;22.42;;;11.45;;
75413;SDS011;64758;52.122;5.404;2022-10-31T16:52:06;29.27;;;11.43;;
75413;SDS011;64758;52.122;5.404;2022-10-31T16:54:32;27.05;;;12.60;;
75413;SDS011;64758;52.122;5.404;2022-10-31T16:56:59;26.02;;;11.65;;
75413;SDS011;64758;52.122;5.404;2022-10-31T16:59:27;27.13;;;11.27;;
75413;SDS011;64758;52.122;5.404;2022-10-31T17:01:53;23.73;;;11.75;;
75413;SDS011;64758;52.122;5.404;2022-10-31T17:04:21;26.93;;;12.27;;
75413;SDS011;64758;52.122;5.404;2022-10-31T17:06:48;26.30;;;12.02;;
75413;SDS011;64758;52.122;5.404;2022-10-31T17:09:14;26.00;;;11.70;;
75413;SDS011;64758;52.122;5.404;2022-10-31T17:11:43;25.52;;;11.93;;
75413;SDS011;64758;52.122;5.404;2022-10-31T17:14:15;29.70;;;12.27;;
75413;SDS011;64758;52.122;5.404;2022-10-31T17:16:42;28.50;;;12.20;;
75413;SDS011;64758;52.122;5.404;2022-10-31T17:19:12;24.17;;;11.30;;
75413;SDS011;64758;52.122;5.404;2022-10-31T17:21:38;22.25;;;11.38;;
75413;SDS011;64758;52.122;5.404;2022-10-31T17:24:06;24.65;;;12.02;;
75413;SDS011;64758;52.122;5.404;2022-10-31T17:26:35;30.42;;;12.15;;
75413;SDS011;64758;52.122;5.404;2022-10-31T17:29:01;24.70;;;11.87;;
75413;SDS011;64758;52.122;5.404;2022-10-31T17:31:29;28.92;;;12.02;;
75413;SDS011;64758;52.122;5.404;2022-10-31T17:33:57;25.17;;;11.88;;
75413;SDS011;64758;52.122;5.404;2022-10-31T17:36:27;27.77;;;12.20;;
75413;SDS011;64758;52.122;5.404;2022-10-31T17:38:53;27.55;;;12.77;;
75413;SDS011;64758;52.122;5.404;2022-10-31T17:41:20;23.77;;;12.03;;